sensor_id;sensor_type;location;lat;lon;timestamp;P1;durP1;ratioP1;P2;durP2;ratioP2
47153;SDS011;32907;41.412;2.164;2022-12-11T00:01:16;1.98;;;1.10;;
47153;SDS011;32907;41.412;2.164;2022-12-11T00:03:46;1.65;;;1.10;;
47153;SDS011;32907;41.412;2.164;2022-12-11T00:06:16;1.85;;;1.20;;
47153;SDS011;32907;41.412;2.164;2022-12-11T00:08:45;2.20;;;1.50;;
47153;SDS011;32907;41.412;2.164;2022-12-11T00:11:14;2.65;;;1.30;;
47153;SDS011;32907;41.412;2.164;2022-12-11T00:13:43;1.73;;;1.20;;
47153;SDS011;32907;41.412;2.164;2022-12-11T00:16:11;2.72;;;1.40;;
47153;SDS011;32907;41.412;2.164;2022-12-11T00:18:39;1.65;;;1.17;;
47153;SDS011;32907;41.412;2.164;2022-12-11T00:21:09;2.65;;;1.40;;
47153;SDS011;32907;41.412;2.164;2022-12-11T00:23:39;1.80;;;1.30;;
47153;SDS011;32907;41.412;2.164;2022-12-11T00:26:08;1.55;;;1.20;;
47153;SDS011;32907;41.412;2.164;2022-12-11T00:28:39;2.95;;;1.20;;
47153;SDS011;32907;41.412;2.164;2022-12-11T00:31:09;1.70;;;1.13;;
47153;SDS011;32907;41.412;2.164;2022-12-11T00:33:41;2.10;;;1.15;;
47153;SDS011;32907;41.412;2.164;2022-12-11T00:36:17;2.00;;;1.15;;
47153;SDS011;32907;41.412;2.164;2022-12-11T00:38:49;3.25;;;1.42;;
47153;SDS011;32907;41.412;2.164;2022-12-11T00:41:18;3.67;;;1.50;;
47153;SDS011;32907;41.412;2.164;2022-12-11T00:43:46;3.28;;;1.52;;
47153;SDS011;32907;41.412;2.164;2022-12-11T00:46:14;2.22;;;1.27;;
47153;SDS011;32907;41.412;2.164;2022-12-11T00:48:42;4.35;;;1.63;;
47153;SDS011;32907;41.412;2.164;2022-12-11T00:51:11;2.60;;;1.33;;
47153;SDS011;32907;41.412;2.164;2022-12-11T00:53:38;2.70;;;1.42;;
47153;SDS011;32907;41.412;2.164;2022-12-11T00:56:10;2.45;;;1.30;;
47153;SDS011;32907;41.412;2.164;2022-12-11T00:58:39;2.55;;;1.30;;
47153;SDS011;32907;41.412;2.164;2022-12-11T01:01:11;2.15;;;1.33;;
47153;SDS011;32907;41.412;2.164;2022-12-11T01:03:42;2.28;;;1.25;;
47153;SDS011;32907;41.412;2.164;2022-12-11T01:06:17;2.60;;;1.35;;
47153;SDS011;32907;41.412;2.164;2022-12-11T01:08:47;2.55;;;1.20;;
47153;SDS011;32907;41.412;2.164;2022-12-11T01:11:15;2.70;;;1.10;;
47153;SDS011;32907;41.412;2.164;2022-12-11T01:13:43;1.90;;;1.20;;
47153;SDS011;32907;41.412;2.164;2022-12-11T01:16:12;2.22;;;1.23;;
47153;SDS011;32907;41.412;2.164;2022-12-11T01:18:42;2.20;;;1.27;;
47153;SDS011;32907;41.412;2.164;2022-12-11T01:21:11;2.35;;;1.50;;
47153;SDS011;32907;41.412;2.164;2022-12-11T01:23:40;2.30;;;1.13;;
47153;SDS011;32907;41.412;2.164;2022-12-11T01:26:09;2.90;;;1.67;;
47153;SDS011;32907;41.412;2.164;2022-12-11T01:28:39;2.83;;;1.85;;
47153;SDS011;32907;41.412;2.164;2022-12-11T01:31:07;2.20;;;1.20;;
47153;SDS011;32907;41.412;2.164;2022-12-11T01:33:37;3.53;;;1.30;;
47153;SDS011;32907;41.412;2.164;2022-12-11T01:36:16;2.50;;;1.23;;
47153;SDS011;32907;41.412;2.164;2022-12-11T01:38:46;2.28;;;1.35;;
47153;SDS011;32907;41.412;2.164;2022-12-11T01:41:16;2.75;;;1.20;;
47153;SDS011;32907;41.412;2.164;2022-12-11T01:46:41;2.55;;;1.25;;
47153;SDS011;32907;41.412;2.164;2022-12-11T01:49:11;2.22;;;0.80;;
47153;SDS011;32907;41.412;2.164;2022-12-11T01:51:44;2.03;;;1.20;;
47153;SDS011;32907;41.412;2.164;2022-12-11T01:54:18;1.95;;;1.02;;
47153;SDS011;32907;41.412;2.164;2022-12-11T01:56:50;1.63;;;0.80;;
47153;SDS011;32907;41.412;2.164;2022-12-11T01:59:20;1.60;;;0.98;;
47153;SDS011;32907;41.412;2.164;2022-12-11T02:04:40;2.58;;;1.00;;
47153;SDS011;32907;41.412;2.164;2022-12-11T02:07:10;1.50;;;0.93;;
47153;SDS011;32907;41.412;2.164;2022-12-11T02:09:38;1.52;;;0.98;;
47153;SDS011;32907;41.412;2.164;2022-12-11T02:26:12;5.35;;;3.50;;
47153;SDS011;32907;41.412;2.164;2022-12-11T02:28:50;5.22;;;3.47;;
47153;SDS011;32907;41.412;2.164;2022-12-11T02:31:23;4.80;;;2.80;;
47153;SDS011;32907;41.412;2.164;2022-12-11T02:34:31;3.40;;;2.33;;
47153;SDS011;32907;41.412;2.164;2022-12-11T02:36:56;3.00;;;2.22;;
47153;SDS011;32907;41.412;2.164;2022-12-11T02:39:30;2.92;;;1.85;;
47153;SDS011;32907;41.412;2.164;2022-12-11T02:42:02;1.98;;;1.20;;
47153;SDS011;32907;41.412;2.164;2022-12-11T02:44:31;2.38;;;1.27;;
47153;SDS011;32907;41.412;2.164;2022-12-11T02:47:01;2.08;;;1.10;;
47153;SDS011;32907;41.412;2.164;2022-12-11T02:49:31;1.63;;;0.90;;
47153;SDS011;32907;41.412;2.164;2022-12-11T02:52:00;2.83;;;1.40;;
47153;SDS011;32907;41.412;2.164;2022-12-11T02:54:31;1.40;;;0.90;;
47153;SDS011;32907;41.412;2.164;2022-12-11T02:57:04;1.25;;;0.80;;
47153;SDS011;32907;41.412;2.164;2022-12-11T02:59:38;1.85;;;1.20;;
47153;SDS011;32907;41.412;2.164;2022-12-11T03:02:09;2.15;;;1.00;;
47153;SDS011;32907;41.412;2.164;2022-12-11T03:04:38;2.38;;;1.33;;
47153;SDS011;32907;41.412;2.164;2022-12-11T03:07:12;2.10;;;1.13;;
47153;SDS011;32907;41.412;2.164;2022-12-11T03:09:45;1.42;;;0.80;;
47153;SDS011;32907;41.412;2.164;2022-12-11T03:12:18;2.55;;;1.00;;
47153;SDS011;32907;41.412;2.164;2022-12-11T03:14:50;1.40;;;0.80;;
47153;SDS011;32907;41.412;2.164;2022-12-11T03:17:20;1.55;;;0.90;;
47153;SDS011;32907;41.412;2.164;2022-12-11T03:22:36;2.05;;;1.10;;
47153;SDS011;32907;41.412;2.164;2022-12-11T03:27:47;2.38;;;1.13;;
47153;SDS011;32907;41.412;2.164;2022-12-11T03:30:24;1.38;;;0.80;;
47153;SDS011;32907;41.412;2.164;2022-12-11T03:32:57;1.83;;;1.02;;
47153;SDS011;32907;41.412;2.164;2022-12-11T03:35:35;1.75;;;0.90;;
47153;SDS011;32907;41.412;2.164;2022-12-11T03:38:23;1.80;;;0.98;;
47153;SDS011;32907;41.412;2.164;2022-12-11T03:40:58;2.08;;;0.90;;
47153;SDS011;32907;41.412;2.164;2022-12-11T03:43:28;1.58;;;0.98;;
47153;SDS011;32907;41.412;2.164;2022-12-11T03:45:58;1.67;;;0.82;;
47153;SDS011;32907;41.412;2.164;2022-12-11T03:48:29;1.65;;;0.93;;
47153;SDS011;32907;41.412;2.164;2022-12-11T03:51:02;2.00;;;1.17;;
47153;SDS011;32907;41.412;2.164;2022-12-11T03:53:35;1.77;;;1.00;;
47153;SDS011;32907;41.412;2.164;2022-12-11T03:56:05;1.63;;;0.98;;
47153;SDS011;32907;41.412;2.164;2022-12-11T03:58:36;1.95;;;1.17;;
47153;SDS011;32907;41.412;2.164;2022-12-11T04:01:07;1.98;;;1.10;;
47153;SDS011;32907;41.412;2.164;2022-12-11T04:03:37;1.83;;;1.05;;
47153;SDS011;32907;41.412;2.164;2022-12-11T04:06:05;1.63;;;1.00;;
47153;SDS011;32907;41.412;2.164;2022-12-11T04:08:33;1.45;;;0.82;;
47153;SDS011;32907;41.412;2.164;2022-12-11T04:11:01;2.40;;;1.00;;
47153;SDS011;32907;41.412;2.164;2022-12-11T04:13:48;1.83;;;1.00;;
47153;SDS011;32907;41.412;2.164;2022-12-11T04:16:34;1.60;;;1.05;;
47153;SDS011;32907;41.412;2.164;2022-12-11T04:19:03;1.95;;;1.10;;
47153;SDS011;32907;41.412;2.164;2022-12-11T04:21:50;1.83;;;0.93;;
47153;SDS011;32907;41.412;2.164;2022-12-11T04:24:39;2.65;;;1.05;;
47153;SDS011;32907;41.412;2.164;2022-12-11T04:27:07;1.67;;;1.17;;
47153;SDS011;32907;41.412;2.164;2022-12-11T04:29:35;1.98;;;1.02;;
47153;SDS011;32907;41.412;2.164;2022-12-11T04:32:03;2.20;;;1.25;;
47153;SDS011;32907;41.412;2.164;2022-12-11T04:34:31;2.03;;;1.02;;
47153;SDS011;32907;41.412;2.164;2022-12-11T04:36:58;1.42;;;0.88;;
47153;SDS011;32907;41.412;2.164;2022-12-11T04:39:26;3.53;;;1.30;;
47153;SDS011;32907;41.412;2.164;2022-12-11T04:41:54;1.35;;;0.80;;
47153;SDS011;32907;41.412;2.164;2022-12-11T04:44:22;3.03;;;1.20;;
47153;SDS011;32907;41.412;2.164;2022-12-11T04:46:49;1.60;;;0.80;;
47153;SDS011;32907;41.412;2.164;2022-12-11T04:49:17;1.85;;;0.90;;
47153;SDS011;32907;41.412;2.164;2022-12-11T04:51:45;1.23;;;0.80;;
47153;SDS011;32907;41.412;2.164;2022-12-11T04:54:12;1.02;;;0.70;;
47153;SDS011;32907;41.412;2.164;2022-12-11T04:56:40;1.40;;;1.02;;
47153;SDS011;32907;41.412;2.164;2022-12-11T04:59:08;2.85;;;1.00;;
47153;SDS011;32907;41.412;2.164;2022-12-11T05:01:36;1.10;;;0.63;;
47153;SDS011;32907;41.412;2.164;2022-12-11T05:04:04;2.03;;;1.30;;
47153;SDS011;32907;41.412;2.164;2022-12-11T05:06:31;2.30;;;1.00;;
47153;SDS011;32907;41.412;2.164;2022-12-11T05:08:59;1.70;;;1.00;;
47153;SDS011;32907;41.412;2.164;2022-12-11T05:11:27;1.92;;;0.98;;
47153;SDS011;32907;41.412;2.164;2022-12-11T05:13:55;2.10;;;0.95;;
47153;SDS011;32907;41.412;2.164;2022-12-11T05:16:22;1.70;;;1.00;;
47153;SDS011;32907;41.412;2.164;2022-12-11T05:18:50;1.30;;;0.90;;
47153;SDS011;32907;41.412;2.164;2022-12-11T05:21:18;1.52;;;0.77;;
47153;SDS011;32907;41.412;2.164;2022-12-11T05:23:45;1.95;;;0.90;;
47153;SDS011;32907;41.412;2.164;2022-12-11T05:26:15;1.85;;;0.90;;
47153;SDS011;32907;41.412;2.164;2022-12-11T05:28:45;1.50;;;0.75;;
47153;SDS011;32907;41.412;2.164;2022-12-11T05:31:17;2.05;;;0.90;;
47153;SDS011;32907;41.412;2.164;2022-12-11T05:33:47;2.03;;;0.82;;
47153;SDS011;32907;41.412;2.164;2022-12-11T05:36:17;1.52;;;1.00;;
47153;SDS011;32907;41.412;2.164;2022-12-11T05:38:47;2.28;;;1.35;;
47153;SDS011;32907;41.412;2.164;2022-12-11T05:41:17;2.17;;;1.52;;
47153;SDS011;32907;41.412;2.164;2022-12-11T05:43:47;2.65;;;1.58;;
47153;SDS011;32907;41.412;2.164;2022-12-11T05:46:16;2.45;;;1.42;;
47153;SDS011;32907;41.412;2.164;2022-12-11T05:48:50;1.98;;;1.30;;
47153;SDS011;32907;41.412;2.164;2022-12-11T05:51:19;2.17;;;1.30;;
47153;SDS011;32907;41.412;2.164;2022-12-11T05:53:48;2.15;;;1.10;;
47153;SDS011;32907;41.412;2.164;2022-12-11T05:56:18;1.95;;;1.08;;
47153;SDS011;32907;41.412;2.164;2022-12-11T05:58:52;1.85;;;1.13;;
47153;SDS011;32907;41.412;2.164;2022-12-11T06:01:25;2.58;;;1.40;;
47153;SDS011;32907;41.412;2.164;2022-12-11T06:03:55;2.00;;;1.10;;
47153;SDS011;32907;41.412;2.164;2022-12-11T06:06:24;2.80;;;1.23;;
47153;SDS011;32907;41.412;2.164;2022-12-11T06:08:53;4.13;;;1.45;;
47153;SDS011;32907;41.412;2.164;2022-12-11T06:11:23;1.92;;;1.30;;
47153;SDS011;32907;41.412;2.164;2022-12-11T06:13:52;3.03;;;1.65;;
47153;SDS011;32907;41.412;2.164;2022-12-11T06:16:20;2.33;;;1.27;;
47153;SDS011;32907;41.412;2.164;2022-12-11T06:18:49;5.00;;;1.30;;
47153;SDS011;32907;41.412;2.164;2022-12-11T06:21:18;2.03;;;1.30;;
47153;SDS011;32907;41.412;2.164;2022-12-11T06:23:51;2.17;;;1.33;;
47153;SDS011;32907;41.412;2.164;2022-12-11T06:26:20;2.60;;;1.40;;
47153;SDS011;32907;41.412;2.164;2022-12-11T06:28:49;2.55;;;1.50;;
47153;SDS011;32907;41.412;2.164;2022-12-11T06:31:17;3.92;;;1.55;;
47153;SDS011;32907;41.412;2.164;2022-12-11T06:33:45;4.28;;;1.60;;
47153;SDS011;32907;41.412;2.164;2022-12-11T06:36:15;1.98;;;1.30;;
47153;SDS011;32907;41.412;2.164;2022-12-11T06:38:44;2.58;;;1.27;;
47153;SDS011;32907;41.412;2.164;2022-12-11T06:41:12;1.98;;;1.33;;
47153;SDS011;32907;41.412;2.164;2022-12-11T06:43:41;3.67;;;1.30;;
47153;SDS011;32907;41.412;2.164;2022-12-11T06:46:15;8.43;;;1.92;;
47153;SDS011;32907;41.412;2.164;2022-12-11T06:48:45;1.85;;;1.25;;
47153;SDS011;32907;41.412;2.164;2022-12-11T06:51:15;4.72;;;1.40;;
47153;SDS011;32907;41.412;2.164;2022-12-11T06:53:48;2.47;;;1.55;;
47153;SDS011;32907;41.412;2.164;2022-12-11T06:56:18;4.45;;;1.55;;
47153;SDS011;32907;41.412;2.164;2022-12-11T06:58:46;3.00;;;1.65;;
47153;SDS011;32907;41.412;2.164;2022-12-11T07:01:18;3.15;;;1.80;;
47153;SDS011;32907;41.412;2.164;2022-12-11T07:03:56;3.47;;;1.40;;
47153;SDS011;32907;41.412;2.164;2022-12-11T07:06:26;2.13;;;1.33;;
47153;SDS011;32907;41.412;2.164;2022-12-11T07:08:55;3.63;;;1.88;;
47153;SDS011;32907;41.412;2.164;2022-12-11T07:11:26;3.97;;;1.70;;
47153;SDS011;32907;41.412;2.164;2022-12-11T07:13:57;4.40;;;2.08;;
47153;SDS011;32907;41.412;2.164;2022-12-11T07:16:26;3.15;;;2.03;;
47153;SDS011;32907;41.412;2.164;2022-12-11T07:18:54;4.15;;;2.03;;
47153;SDS011;32907;41.412;2.164;2022-12-11T07:21:22;3.50;;;1.90;;
47153;SDS011;32907;41.412;2.164;2022-12-11T07:23:50;4.40;;;2.60;;
47153;SDS011;32907;41.412;2.164;2022-12-11T07:26:18;4.15;;;2.30;;
47153;SDS011;32907;41.412;2.164;2022-12-11T07:28:48;3.80;;;2.17;;
47153;SDS011;32907;41.412;2.164;2022-12-11T07:31:21;4.47;;;2.28;;
47153;SDS011;32907;41.412;2.164;2022-12-11T07:33:56;3.20;;;1.73;;
47153;SDS011;32907;41.412;2.164;2022-12-11T07:36:27;4.28;;;1.70;;
47153;SDS011;32907;41.412;2.164;2022-12-11T07:38:55;3.38;;;1.92;;
47153;SDS011;32907;41.412;2.164;2022-12-11T07:41:25;3.28;;;1.98;;
47153;SDS011;32907;41.412;2.164;2022-12-11T07:43:58;4.30;;;1.75;;
47153;SDS011;32907;41.412;2.164;2022-12-11T07:46:28;2.85;;;2.00;;
47153;SDS011;32907;41.412;2.164;2022-12-11T07:48:57;3.70;;;2.10;;
47153;SDS011;32907;41.412;2.164;2022-12-11T07:51:28;3.45;;;1.88;;
47153;SDS011;32907;41.412;2.164;2022-12-11T07:53:59;4.80;;;2.25;;
47153;SDS011;32907;41.412;2.164;2022-12-11T07:56:28;3.33;;;1.52;;
47153;SDS011;32907;41.412;2.164;2022-12-11T07:59:00;2.42;;;1.58;;
47153;SDS011;32907;41.412;2.164;2022-12-11T08:01:30;2.60;;;1.60;;
47153;SDS011;32907;41.412;2.164;2022-12-11T08:04:06;3.97;;;2.08;;
47153;SDS011;32907;41.412;2.164;2022-12-11T08:06:36;3.10;;;1.73;;
47153;SDS011;32907;41.412;2.164;2022-12-11T08:09:07;3.60;;;1.70;;
47153;SDS011;32907;41.412;2.164;2022-12-11T08:11:43;3.78;;;1.85;;
47153;SDS011;32907;41.412;2.164;2022-12-11T08:14:11;3.45;;;1.83;;
47153;SDS011;32907;41.412;2.164;2022-12-11T08:16:39;5.45;;;1.85;;
47153;SDS011;32907;41.412;2.164;2022-12-11T08:19:12;3.60;;;1.98;;
47153;SDS011;32907;41.412;2.164;2022-12-11T08:21:40;3.80;;;1.80;;
47153;SDS011;32907;41.412;2.164;2022-12-11T08:24:08;2.40;;;1.50;;
47153;SDS011;32907;41.412;2.164;2022-12-11T08:26:36;4.63;;;2.08;;
47153;SDS011;32907;41.412;2.164;2022-12-11T08:29:04;3.67;;;2.13;;
47153;SDS011;32907;41.412;2.164;2022-12-11T08:31:32;3.85;;;2.38;;
47153;SDS011;32907;41.412;2.164;2022-12-11T08:34:00;3.97;;;1.88;;
47153;SDS011;32907;41.412;2.164;2022-12-11T08:36:28;3.85;;;2.35;;
47153;SDS011;32907;41.412;2.164;2022-12-11T08:38:56;4.30;;;2.20;;
47153;SDS011;32907;41.412;2.164;2022-12-11T08:41:27;3.67;;;2.28;;
47153;SDS011;32907;41.412;2.164;2022-12-11T08:43:57;3.42;;;1.80;;
47153;SDS011;32907;41.412;2.164;2022-12-11T08:46:28;3.63;;;1.88;;
47153;SDS011;32907;41.412;2.164;2022-12-11T08:48:58;5.05;;;1.95;;
47153;SDS011;32907;41.412;2.164;2022-12-11T08:51:26;4.35;;;2.10;;
47153;SDS011;32907;41.412;2.164;2022-12-11T08:53:56;3.50;;;2.03;;
47153;SDS011;32907;41.412;2.164;2022-12-11T08:56:25;3.75;;;1.88;;
47153;SDS011;32907;41.412;2.164;2022-12-11T08:58:54;4.03;;;1.85;;
47153;SDS011;32907;41.412;2.164;2022-12-11T09:01:23;4.88;;;2.38;;
47153;SDS011;32907;41.412;2.164;2022-12-11T09:03:52;5.80;;;3.20;;
47153;SDS011;32907;41.412;2.164;2022-12-11T09:06:22;4.60;;;3.17;;
47153;SDS011;32907;41.412;2.164;2022-12-11T09:08:51;5.03;;;3.10;;
47153;SDS011;32907;41.412;2.164;2022-12-11T09:11:20;5.20;;;2.40;;
47153;SDS011;32907;41.412;2.164;2022-12-11T09:13:53;5.25;;;2.88;;
47153;SDS011;32907;41.412;2.164;2022-12-11T09:16:23;6.00;;;2.50;;
47153;SDS011;32907;41.412;2.164;2022-12-11T09:18:53;4.00;;;2.22;;
47153;SDS011;32907;41.412;2.164;2022-12-11T09:21:24;5.53;;;2.20;;
47153;SDS011;32907;41.412;2.164;2022-12-11T09:23:56;5.25;;;2.97;;
47153;SDS011;32907;41.412;2.164;2022-12-11T09:26:27;5.75;;;3.00;;
47153;SDS011;32907;41.412;2.164;2022-12-11T09:28:56;4.88;;;2.47;;
47153;SDS011;32907;41.412;2.164;2022-12-11T09:31:29;5.15;;;2.58;;
47153;SDS011;32907;41.412;2.164;2022-12-11T09:34:01;12.82;;;3.13;;
47153;SDS011;32907;41.412;2.164;2022-12-11T09:36:31;6.65;;;3.40;;
47153;SDS011;32907;41.412;2.164;2022-12-11T09:39:00;5.45;;;2.70;;
47153;SDS011;32907;41.412;2.164;2022-12-11T09:41:35;4.60;;;2.65;;
47153;SDS011;32907;41.412;2.164;2022-12-11T09:46:58;4.97;;;2.50;;
47153;SDS011;32907;41.412;2.164;2022-12-11T09:49:30;3.67;;;2.00;;
47153;SDS011;32907;41.412;2.164;2022-12-11T09:52:27;5.95;;;2.00;;
47153;SDS011;32907;41.412;2.164;2022-12-11T09:55:22;4.50;;;2.00;;
47153;SDS011;32907;41.412;2.164;2022-12-11T09:57:57;3.50;;;1.98;;
47153;SDS011;32907;41.412;2.164;2022-12-11T10:00:41;4.03;;;2.70;;
47153;SDS011;32907;41.412;2.164;2022-12-11T10:11:49;7.47;;;5.05;;
47153;SDS011;32907;41.412;2.164;2022-12-11T10:19:59;6.10;;;3.60;;
47153;SDS011;32907;41.412;2.164;2022-12-11T10:22:40;6.00;;;3.53;;
47153;SDS011;32907;41.412;2.164;2022-12-11T10:25:14;5.45;;;3.20;;
47153;SDS011;32907;41.412;2.164;2022-12-11T10:27:52;5.00;;;3.10;;
47153;SDS011;32907;41.412;2.164;2022-12-11T10:30:21;8.45;;;4.28;;
47153;SDS011;32907;41.412;2.164;2022-12-11T10:35:41;11.07;;;5.10;;
47153;SDS011;32907;41.412;2.164;2022-12-11T10:38:27;8.07;;;4.55;;
47153;SDS011;32907;41.412;2.164;2022-12-11T10:41:11;7.30;;;3.85;;
47153;SDS011;32907;41.412;2.164;2022-12-11T10:46:16;5.20;;;3.15;;
47153;SDS011;32907;41.412;2.164;2022-12-11T10:48:56;11.73;;;3.22;;
47153;SDS011;32907;41.412;2.164;2022-12-11T10:53:59;12.60;;;3.63;;
47153;SDS011;32907;41.412;2.164;2022-12-11T10:56:44;6.03;;;3.03;;
47153;SDS011;32907;41.412;2.164;2022-12-11T11:02:20;9.82;;;5.70;;
47153;SDS011;32907;41.412;2.164;2022-12-11T11:04:58;8.60;;;6.45;;
47153;SDS011;32907;41.412;2.164;2022-12-11T11:07:37;9.23;;;6.80;;
47153;SDS011;32907;41.412;2.164;2022-12-11T11:10:13;9.98;;;6.30;;
47153;SDS011;32907;41.412;2.164;2022-12-11T11:12:47;7.10;;;4.18;;
47153;SDS011;32907;41.412;2.164;2022-12-11T11:15:24;6.88;;;3.72;;
47153;SDS011;32907;41.412;2.164;2022-12-11T11:17:55;6.07;;;3.13;;
47153;SDS011;32907;41.412;2.164;2022-12-11T11:20:28;4.47;;;2.67;;
47153;SDS011;32907;41.412;2.164;2022-12-11T11:23:01;6.18;;;3.85;;
47153;SDS011;32907;41.412;2.164;2022-12-11T11:25:31;11.98;;;4.30;;
47153;SDS011;32907;41.412;2.164;2022-12-11T11:28:06;8.38;;;4.85;;
47153;SDS011;32907;41.412;2.164;2022-12-11T11:31:05;7.88;;;5.13;;
47153;SDS011;32907;41.412;2.164;2022-12-11T11:33:44;9.65;;;5.70;;
47153;SDS011;32907;41.412;2.164;2022-12-11T11:36:25;9.80;;;4.95;;
47153;SDS011;32907;41.412;2.164;2022-12-11T11:44:33;8.18;;;4.45;;
47153;SDS011;32907;41.412;2.164;2022-12-11T11:47:27;13.10;;;6.43;;
47153;SDS011;32907;41.412;2.164;2022-12-11T11:50:07;18.67;;;8.82;;
47153;SDS011;32907;41.412;2.164;2022-12-11T11:52:45;23.48;;;11.90;;
47153;SDS011;32907;41.412;2.164;2022-12-11T11:58:14;12.93;;;8.23;;
47153;SDS011;32907;41.412;2.164;2022-12-11T12:00:52;10.32;;;5.82;;
47153;SDS011;32907;41.412;2.164;2022-12-11T12:03:22;12.77;;;6.35;;
47153;SDS011;32907;41.412;2.164;2022-12-11T12:16:35;7.20;;;4.88;;
47153;SDS011;32907;41.412;2.164;2022-12-11T12:19:27;9.27;;;5.60;;
47153;SDS011;32907;41.412;2.164;2022-12-11T12:27:33;5.78;;;4.00;;
47153;SDS011;32907;41.412;2.164;2022-12-11T12:30:20;7.50;;;4.00;;
47153;SDS011;32907;41.412;2.164;2022-12-11T12:38:10;13.05;;;9.32;;
47153;SDS011;32907;41.412;2.164;2022-12-11T12:46:16;33.30;;;17.50;;
47153;SDS011;32907;41.412;2.164;2022-12-11T12:48:55;22.10;;;13.55;;
47153;SDS011;32907;41.412;2.164;2022-12-11T12:51:25;17.25;;;9.63;;
47153;SDS011;32907;41.412;2.164;2022-12-11T12:53:55;14.18;;;9.57;;
47153;SDS011;32907;41.412;2.164;2022-12-11T12:56:26;15.50;;;9.95;;
47153;SDS011;32907;41.412;2.164;2022-12-11T12:58:57;11.90;;;8.32;;
47153;SDS011;32907;41.412;2.164;2022-12-11T13:01:26;16.10;;;9.70;;
47153;SDS011;32907;41.412;2.164;2022-12-11T13:04:00;19.73;;;10.38;;
47153;SDS011;32907;41.412;2.164;2022-12-11T13:09:24;23.23;;;11.30;;
47153;SDS011;32907;41.412;2.164;2022-12-11T13:11:55;21.23;;;10.98;;
47153;SDS011;32907;41.412;2.164;2022-12-11T13:14:30;14.90;;;10.73;;
47153;SDS011;32907;41.412;2.164;2022-12-11T13:17:07;16.38;;;9.88;;
47153;SDS011;32907;41.412;2.164;2022-12-11T13:19:49;18.63;;;12.13;;
47153;SDS011;32907;41.412;2.164;2022-12-11T13:22:25;17.48;;;11.80;;
47153;SDS011;32907;41.412;2.164;2022-12-11T13:25:00;18.45;;;14.52;;
47153;SDS011;32907;41.412;2.164;2022-12-11T13:27:43;21.02;;;15.50;;
47153;SDS011;32907;41.412;2.164;2022-12-11T13:32:43;19.10;;;11.93;;
47153;SDS011;32907;41.412;2.164;2022-12-11T13:35:30;17.13;;;10.88;;
47153;SDS011;32907;41.412;2.164;2022-12-11T13:38:07;14.73;;;9.25;;
47153;SDS011;32907;41.412;2.164;2022-12-11T13:40:53;12.63;;;7.53;;
47153;SDS011;32907;41.412;2.164;2022-12-11T13:43:24;10.43;;;6.82;;
47153;SDS011;32907;41.412;2.164;2022-12-11T13:46:06;12.52;;;6.53;;
47153;SDS011;32907;41.412;2.164;2022-12-11T13:48:51;12.18;;;7.40;;
47153;SDS011;32907;41.412;2.164;2022-12-11T13:51:24;9.77;;;7.50;;
47153;SDS011;32907;41.412;2.164;2022-12-11T13:54:10;12.30;;;6.82;;
47153;SDS011;32907;41.412;2.164;2022-12-11T13:56:54;12.98;;;9.10;;
47153;SDS011;32907;41.412;2.164;2022-12-11T13:59:34;14.43;;;10.05;;
47153;SDS011;32907;41.412;2.164;2022-12-11T14:02:14;12.85;;;9.30;;
47153;SDS011;32907;41.412;2.164;2022-12-11T14:04:59;13.13;;;9.40;;
47153;SDS011;32907;41.412;2.164;2022-12-11T14:10:30;16.13;;;11.10;;
47153;SDS011;32907;41.412;2.164;2022-12-11T14:15:34;14.43;;;10.68;;
47153;SDS011;32907;41.412;2.164;2022-12-11T14:18:03;13.27;;;8.73;;
47153;SDS011;32907;41.412;2.164;2022-12-11T14:20:32;10.25;;;7.53;;
47153;SDS011;32907;41.412;2.164;2022-12-11T14:25:33;8.18;;;6.20;;
47153;SDS011;32907;41.412;2.164;2022-12-11T14:28:01;10.38;;;5.70;;
47153;SDS011;32907;41.412;2.164;2022-12-11T14:30:29;8.15;;;5.03;;
47153;SDS011;32907;41.412;2.164;2022-12-11T14:33:00;6.43;;;4.55;;
47153;SDS011;32907;41.412;2.164;2022-12-11T14:35:32;7.70;;;4.28;;
47153;SDS011;32907;41.412;2.164;2022-12-11T14:38:50;8.30;;;4.18;;
47153;SDS011;32907;41.412;2.164;2022-12-11T14:41:04;7.82;;;3.63;;
47153;SDS011;32907;41.412;2.164;2022-12-11T14:43:53;7.30;;;3.47;;
47153;SDS011;32907;41.412;2.164;2022-12-11T14:49:45;7.38;;;4.05;;
47153;SDS011;32907;41.412;2.164;2022-12-11T14:52:18;8.20;;;4.90;;
47153;SDS011;32907;41.412;2.164;2022-12-11T14:54:49;7.50;;;4.68;;
47153;SDS011;32907;41.412;2.164;2022-12-11T14:57:23;8.80;;;5.25;;
47153;SDS011;32907;41.412;2.164;2022-12-11T14:59:54;6.80;;;4.13;;
47153;SDS011;32907;41.412;2.164;2022-12-11T15:02:31;8.35;;;4.70;;
47153;SDS011;32907;41.412;2.164;2022-12-11T15:05:04;7.20;;;4.70;;
47153;SDS011;32907;41.412;2.164;2022-12-11T15:07:40;8.65;;;4.43;;
47153;SDS011;32907;41.412;2.164;2022-12-11T15:10:30;5.97;;;3.97;;
47153;SDS011;32907;41.412;2.164;2022-12-11T15:13:08;6.72;;;4.50;;
47153;SDS011;32907;41.412;2.164;2022-12-11T15:15:37;10.38;;;5.72;;
47153;SDS011;32907;41.412;2.164;2022-12-11T15:18:16;11.02;;;6.20;;
47153;SDS011;32907;41.412;2.164;2022-12-11T15:20:52;10.48;;;6.05;;
47153;SDS011;32907;41.412;2.164;2022-12-11T15:23:22;8.68;;;5.38;;
47153;SDS011;32907;41.412;2.164;2022-12-11T15:25:54;9.57;;;5.80;;
47153;SDS011;32907;41.412;2.164;2022-12-11T15:28:25;12.80;;;6.65;;
47153;SDS011;32907;41.412;2.164;2022-12-11T15:30:59;9.50;;;6.38;;
47153;SDS011;32907;41.412;2.164;2022-12-11T15:33:32;8.48;;;6.50;;
47153;SDS011;32907;41.412;2.164;2022-12-11T15:36:04;8.55;;;5.70;;
47153;SDS011;32907;41.412;2.164;2022-12-11T15:38:37;9.57;;;5.85;;
47153;SDS011;32907;41.412;2.164;2022-12-11T15:41:10;7.95;;;5.18;;
47153;SDS011;32907;41.412;2.164;2022-12-11T15:43:40;7.38;;;4.78;;
47153;SDS011;32907;41.412;2.164;2022-12-11T15:46:09;8.48;;;5.55;;
47153;SDS011;32907;41.412;2.164;2022-12-11T15:48:37;8.43;;;5.32;;
47153;SDS011;32907;41.412;2.164;2022-12-11T15:51:05;6.90;;;5.13;;
47153;SDS011;32907;41.412;2.164;2022-12-11T15:53:33;7.75;;;4.90;;
47153;SDS011;32907;41.412;2.164;2022-12-11T15:56:00;10.70;;;5.75;;
47153;SDS011;32907;41.412;2.164;2022-12-11T15:58:29;14.05;;;9.00;;
47153;SDS011;32907;41.412;2.164;2022-12-11T16:00:57;16.20;;;12.40;;
47153;SDS011;32907;41.412;2.164;2022-12-11T16:03:25;21.55;;;14.02;;
47153;SDS011;32907;41.412;2.164;2022-12-11T16:05:53;16.00;;;11.13;;
47153;SDS011;32907;41.412;2.164;2022-12-11T16:08:21;16.75;;;10.98;;
47153;SDS011;32907;41.412;2.164;2022-12-11T16:10:51;20.65;;;16.05;;
47153;SDS011;32907;41.412;2.164;2022-12-11T16:13:21;28.00;;;22.02;;
47153;SDS011;32907;41.412;2.164;2022-12-11T16:15:52;27.33;;;19.50;;
47153;SDS011;32907;41.412;2.164;2022-12-11T16:18:21;20.90;;;13.90;;
47153;SDS011;32907;41.412;2.164;2022-12-11T16:20:50;17.60;;;11.55;;
47153;SDS011;32907;41.412;2.164;2022-12-11T16:23:19;14.48;;;9.95;;
47153;SDS011;32907;41.412;2.164;2022-12-11T16:25:47;11.35;;;6.60;;
47153;SDS011;32907;41.412;2.164;2022-12-11T16:28:17;10.73;;;5.53;;
47153;SDS011;32907;41.412;2.164;2022-12-11T16:30:47;9.10;;;5.47;;
47153;SDS011;32907;41.412;2.164;2022-12-11T16:33:16;9.52;;;5.15;;
47153;SDS011;32907;41.412;2.164;2022-12-11T16:35:44;9.90;;;4.65;;
47153;SDS011;32907;41.412;2.164;2022-12-11T16:38:12;9.05;;;5.22;;
47153;SDS011;32907;41.412;2.164;2022-12-11T16:40:40;9.15;;;4.70;;
47153;SDS011;32907;41.412;2.164;2022-12-11T16:43:08;9.63;;;3.95;;
47153;SDS011;32907;41.412;2.164;2022-12-11T16:45:36;8.65;;;4.45;;
47153;SDS011;32907;41.412;2.164;2022-12-11T16:48:05;8.25;;;4.00;;
47153;SDS011;32907;41.412;2.164;2022-12-11T16:50:33;7.28;;;3.85;;
47153;SDS011;32907;41.412;2.164;2022-12-11T16:53:02;9.20;;;4.03;;
47153;SDS011;32907;41.412;2.164;2022-12-11T16:55:30;8.60;;;3.63;;
47153;SDS011;32907;41.412;2.164;2022-12-11T16:57:58;8.32;;;4.30;;
47153;SDS011;32907;41.412;2.164;2022-12-11T17:00:25;7.95;;;4.00;;